AZU4188 SBCT-SBKP
Flight info
| Callsign | AZU4188 |
|---|---|
| Flight time | 0h 47m |
| Altitude | 23000 |
| Route | AKPEN UZ132 EDRAT |
| Aircraft | A320/M-SDE3FGHIRWY/LB1 |
Departure
| Time | 2026-04-30 02:07 |
|---|---|
| Airport | Curitiba-Afonso Pena International Airport (SBCT) |
Arrival
| Time | 2026-04-30 02:54 |
|---|---|
| Airport | Viracopos International Airport (SBKP) |
| Time | Latitude | Longitude | Altitude | Speed | Heading |
|---|---|---|---|---|---|
| 2026-04-30 01:53 | -25.53640 | -49.17141 | 2984 ft | 0 kts | 223° |
| 2026-04-30 02:00 | -25.53637 | -49.17138 | 2984 ft | 3 kts | 225° |
| 2026-04-30 02:00 | -25.53622 | -49.17123 | 2984 ft | 4 kts | 213° |
| 2026-04-30 02:00 | -25.53598 | -49.17110 | 2984 ft | 4 kts | 195° |
| 2026-04-30 02:01 | -25.53585 | -49.17106 | 2984 ft | 1 kts | 194° |
| 2026-04-30 02:01 | -25.53584 | -49.17106 | 2984 ft | 0 kts | 194° |
| 2026-04-30 02:04 | -25.53588 | -49.17105 | 2984 ft | 0 kts | 172° |
| 2026-04-30 02:04 | -25.53599 | -49.17094 | 2984 ft | 3 kts | 122° |
| 2026-04-30 02:04 | -25.53603 | -49.17080 | 2984 ft | 1 kts | 109° |
| 2026-04-30 02:04 | -25.53614 | -49.17037 | 2983 ft | 7 kts | 103° |
| 2026-04-30 02:05 | -25.53619 | -49.17004 | 2983 ft | 2 kts | 93° |
| 2026-04-30 02:05 | -25.53615 | -49.16974 | 2983 ft | 11 kts | 81° |
| 2026-04-30 02:05 | -25.53612 | -49.16890 | 2982 ft | 10 kts | 89° |
| 2026-04-30 02:05 | -25.53611 | -49.16808 | 2981 ft | 16 kts | 89° |
| 2026-04-30 02:06 | -25.53587 | -49.16751 | 2981 ft | 1 kts | 10° |
| 2026-04-30 02:06 | -25.53577 | -49.16759 | 2981 ft | 5 kts | 324° |
| 2026-04-30 02:06 | -25.53508 | -49.16843 | 2981 ft | 45 kts | 316° |
| 2026-04-30 02:06 | -25.53113 | -49.17277 | 2988 ft | 112 kts | 315° |
| 2026-04-30 02:07 | -25.52423 | -49.18025 | 3029 ft | 161 kts | 318° |
| 2026-04-30 02:07 | -25.51698 | -49.18999 | 3642 ft | 171 kts | 299° |
| 2026-04-30 02:07 | -25.51120 | -49.20212 | 4193 ft | 184 kts | 296° |
| 2026-04-30 02:07 | -25.50479 | -49.21523 | 4456 ft | 205 kts | 298° |
| 2026-04-30 02:08 | -25.49748 | -49.22979 | 4691 ft | 228 kts | 298° |
| 2026-04-30 02:08 | -25.48936 | -49.24592 | 5050 ft | 251 kts | 298° |
| 2026-04-30 02:08 | -25.48062 | -49.26315 | 5781 ft | 260 kts | 298° |
| 2026-04-30 02:08 | -25.47071 | -49.27994 | 6628 ft | 264 kts | 314° |
| 2026-04-30 02:09 | -25.45477 | -49.28964 | 7363 ft | 274 kts | 346° |
| 2026-04-30 02:09 | -25.43551 | -49.28808 | 8140 ft | 286 kts | 14° |
| 2026-04-30 02:09 | -25.41725 | -49.27870 | 8942 ft | 293 kts | 26° |
| 2026-04-30 02:09 | -25.39982 | -49.26656 | 9735 ft | 298 kts | 29° |
| 2026-04-30 02:10 | -25.38223 | -49.25379 | 10484 ft | 304 kts | 28° |
| 2026-04-30 02:10 | -25.36384 | -49.24119 | 10717 ft | 326 kts | 27° |
| 2026-04-30 02:10 | -25.34365 | -49.22846 | 11101 ft | 340 kts | 25° |
| 2026-04-30 02:10 | -25.32263 | -49.21606 | 11751 ft | 345 kts | 24° |
| 2026-04-30 02:11 | -25.30114 | -49.20390 | 12384 ft | 349 kts | 23° |
| 2026-04-30 02:11 | -25.27932 | -49.19180 | 13065 ft | 353 kts | 22° |
| 2026-04-30 02:11 | -25.25721 | -49.17965 | 13733 ft | 357 kts | 22° |
| 2026-04-30 02:11 | -25.23484 | -49.16740 | 14324 ft | 361 kts | 22° |
| 2026-04-30 02:12 | -25.21228 | -49.15501 | 14874 ft | 365 kts | 22° |
| 2026-04-30 02:12 | -25.18941 | -49.14238 | 15423 ft | 369 kts | 23° |
| 2026-04-30 02:12 | -25.16631 | -49.12960 | 15964 ft | 374 kts | 23° |
| 2026-04-30 02:12 | -25.14296 | -49.11660 | 16519 ft | 378 kts | 23° |
| 2026-04-30 02:13 | -25.11940 | -49.10346 | 17061 ft | 382 kts | 23° |
| 2026-04-30 02:13 | -25.09554 | -49.09015 | 17627 ft | 385 kts | 22° |
| 2026-04-30 02:13 | -25.07158 | -49.07683 | 18191 ft | 388 kts | 22° |
| 2026-04-30 02:13 | -25.04733 | -49.06340 | 18639 ft | 393 kts | 21° |
| 2026-04-30 02:14 | -25.02274 | -49.04982 | 19101 ft | 397 kts | 21° |
| 2026-04-30 02:14 | -24.99798 | -49.03615 | 19566 ft | 400 kts | 21° |
| 2026-04-30 02:14 | -24.97299 | -49.02237 | 20040 ft | 403 kts | 21° |
| 2026-04-30 02:14 | -24.94780 | -49.00845 | 20509 ft | 406 kts | 21° |
| 2026-04-30 02:15 | -24.92247 | -48.99443 | 20975 ft | 409 kts | 21° |
| 2026-04-30 02:15 | -24.89696 | -48.98028 | 21425 ft | 412 kts | 21° |
| 2026-04-30 02:15 | -24.87122 | -48.96602 | 21868 ft | 415 kts | 21° |
| 2026-04-30 02:15 | -24.84533 | -48.95170 | 22273 ft | 419 kts | 21° |
| 2026-04-30 02:16 | -24.81956 | -48.93746 | 22657 ft | 421 kts | 21° |
| 2026-04-30 02:16 | -24.79332 | -48.92298 | 23011 ft | 423 kts | 21° |
| 2026-04-30 02:16 | -24.76719 | -48.90854 | 23084 ft | 414 kts | 21° |
| 2026-04-30 02:16 | -24.74173 | -48.89444 | 23092 ft | 407 kts | 21° |
| 2026-04-30 02:17 | -24.71649 | -48.88051 | 23094 ft | 405 kts | 21° |
| 2026-04-30 02:17 | -24.69129 | -48.86666 | 23094 ft | 405 kts | 21° |
| 2026-04-30 02:17 | -24.66607 | -48.85277 | 23097 ft | 405 kts | 21° |
| 2026-04-30 02:17 | -24.64088 | -48.83892 | 23094 ft | 405 kts | 21° |
| 2026-04-30 02:18 | -24.61569 | -48.82509 | 23096 ft | 405 kts | 21° |
| 2026-04-30 02:18 | -24.59046 | -48.81127 | 23093 ft | 405 kts | 21° |
| 2026-04-30 02:18 | -24.56528 | -48.79747 | 23096 ft | 405 kts | 21° |
| 2026-04-30 02:18 | -24.54010 | -48.78366 | 23094 ft | 405 kts | 21° |
| 2026-04-30 02:19 | -24.51497 | -48.76972 | 23091 ft | 406 kts | 24° |
| 2026-04-30 02:19 | -24.49083 | -48.75344 | 23089 ft | 408 kts | 27° |
| 2026-04-30 02:19 | -24.46675 | -48.73680 | 23091 ft | 408 kts | 27° |
| 2026-04-30 02:19 | -24.44276 | -48.72020 | 23093 ft | 408 kts | 27° |
| 2026-04-30 02:20 | -24.41871 | -48.70356 | 23086 ft | 408 kts | 27° |
| 2026-04-30 02:20 | -24.39465 | -48.68696 | 23089 ft | 408 kts | 27° |
| 2026-04-30 02:20 | -24.37060 | -48.67040 | 23085 ft | 408 kts | 27° |
| 2026-04-30 02:20 | -24.34655 | -48.65385 | 23082 ft | 408 kts | 27° |
| 2026-04-30 02:21 | -24.32254 | -48.63736 | 23093 ft | 408 kts | 27° |
| 2026-04-30 02:21 | -24.29878 | -48.62107 | 23100 ft | 407 kts | 27° |
| 2026-04-30 02:21 | -24.27450 | -48.60441 | 23104 ft | 407 kts | 27° |
| 2026-04-30 02:21 | -24.25079 | -48.58812 | 23107 ft | 407 kts | 27° |
| 2026-04-30 02:22 | -24.22684 | -48.57168 | 23101 ft | 407 kts | 27° |
| 2026-04-30 02:22 | -24.20251 | -48.55496 | 23086 ft | 407 kts | 26° |
| 2026-04-30 02:22 | -24.17854 | -48.53850 | 23088 ft | 407 kts | 26° |
| 2026-04-30 02:22 | -24.15487 | -48.52227 | 23091 ft | 407 kts | 26° |
| 2026-04-30 02:23 | -24.13087 | -48.50584 | 23088 ft | 407 kts | 26° |
| 2026-04-30 02:23 | -24.10684 | -48.48940 | 23092 ft | 407 kts | 26° |
| 2026-04-30 02:23 | -24.08280 | -48.47297 | 23091 ft | 407 kts | 26° |
| 2026-04-30 02:23 | -24.05880 | -48.45655 | 23092 ft | 407 kts | 26° |
| 2026-04-30 02:24 | -24.03477 | -48.44013 | 23095 ft | 407 kts | 26° |
| 2026-04-30 02:24 | -24.01074 | -48.42370 | 23099 ft | 407 kts | 26° |
| 2026-04-30 02:24 | -23.98678 | -48.40731 | 23108 ft | 406 kts | 26° |
| 2026-04-30 02:24 | -23.96281 | -48.39093 | 23109 ft | 406 kts | 26° |
| 2026-04-30 02:25 | -23.93886 | -48.37460 | 23108 ft | 405 kts | 26° |
| 2026-04-30 02:25 | -23.91496 | -48.35832 | 23104 ft | 405 kts | 26° |
| 2026-04-30 02:25 | -23.89105 | -48.34200 | 23104 ft | 404 kts | 26° |
| 2026-04-30 02:25 | -23.86726 | -48.32577 | 23109 ft | 403 kts | 26° |
| 2026-04-30 02:26 | -23.84345 | -48.30956 | 23108 ft | 403 kts | 26° |
| 2026-04-30 02:26 | -23.81986 | -48.29301 | 23107 ft | 403 kts | 27° |
| 2026-04-30 02:26 | -23.79666 | -48.27580 | 23108 ft | 404 kts | 28° |
| 2026-04-30 02:26 | -23.77365 | -48.25819 | 23106 ft | 404 kts | 29° |
| 2026-04-30 02:27 | -23.75078 | -48.24042 | 23104 ft | 404 kts | 29° |
| 2026-04-30 02:27 | -23.72789 | -48.22268 | 23096 ft | 403 kts | 28° |
| 2026-04-30 02:27 | -23.70499 | -48.20507 | 23096 ft | 402 kts | 28° |
| 2026-04-30 02:27 | -23.68236 | -48.18783 | 23097 ft | 402 kts | 28° |
| 2026-04-30 02:28 | -23.65938 | -48.17045 | 23096 ft | 402 kts | 28° |
| 2026-04-30 02:28 | -23.63642 | -48.15316 | 23095 ft | 401 kts | 28° |
| 2026-04-30 02:28 | -23.61346 | -48.13591 | 22982 ft | 398 kts | 28° |
| 2026-04-30 02:28 | -23.59081 | -48.11888 | 22442 ft | 395 kts | 28° |
| 2026-04-30 02:29 | -23.56831 | -48.10192 | 21970 ft | 392 kts | 29° |
| 2026-04-30 02:29 | -23.54593 | -48.08500 | 21488 ft | 390 kts | 29° |
| 2026-04-30 02:29 | -23.52368 | -48.06820 | 21000 ft | 388 kts | 29° |
| 2026-04-30 02:29 | -23.50148 | -48.05149 | 20516 ft | 387 kts | 29° |
| 2026-04-30 02:30 | -23.47935 | -48.03486 | 20036 ft | 386 kts | 29° |
| 2026-04-30 02:30 | -23.45730 | -48.01832 | 19561 ft | 385 kts | 30° |
| 2026-04-30 02:30 | -23.43526 | -48.00182 | 19080 ft | 384 kts | 30° |
| 2026-04-30 02:30 | -23.41324 | -47.98533 | 18615 ft | 383 kts | 30° |
| 2026-04-30 02:31 | -23.39135 | -47.96893 | 18200 ft | 380 kts | 30° |
| 2026-04-30 02:31 | -23.36962 | -47.95260 | 17769 ft | 377 kts | 30° |
| 2026-04-30 02:31 | -23.34808 | -47.93638 | 17274 ft | 376 kts | 31° |
| 2026-04-30 02:31 | -23.32744 | -47.91918 | 16888 ft | 373 kts | 39° |
| 2026-04-30 02:32 | -23.30890 | -47.89966 | 16099 ft | 369 kts | 41° |
| 2026-04-30 02:32 | -23.29066 | -47.88012 | 15339 ft | 366 kts | 41° |
| 2026-04-30 02:32 | -23.27276 | -47.86076 | 14684 ft | 360 kts | 42° |
| 2026-04-30 02:32 | -23.25534 | -47.84184 | 14248 ft | 348 kts | 42° |
| 2026-04-30 02:33 | -23.23850 | -47.82359 | 13853 ft | 337 kts | 42° |
| 2026-04-30 02:33 | -23.22214 | -47.80594 | 13403 ft | 326 kts | 42° |
| 2026-04-30 02:33 | -23.20600 | -47.78862 | 13000 ft | 326 kts | 42° |
| 2026-04-30 02:33 | -23.18988 | -47.77138 | 12589 ft | 326 kts | 42° |
| 2026-04-30 02:34 | -23.17388 | -47.75393 | 12199 ft | 327 kts | 47° |
| 2026-04-30 02:34 | -23.16089 | -47.73367 | 11822 ft | 327 kts | 60° |
| 2026-04-30 02:34 | -23.15046 | -47.71214 | 11507 ft | 325 kts | 61° |
| 2026-04-30 02:34 | -23.13991 | -47.69047 | 11181 ft | 323 kts | 60° |
| 2026-04-30 02:35 | -23.12929 | -47.66876 | 10839 ft | 321 kts | 60° |
| 2026-04-30 02:35 | -23.11895 | -47.64767 | 10544 ft | 317 kts | 60° |
| 2026-04-30 02:35 | -23.10871 | -47.62684 | 10187 ft | 309 kts | 60° |
| 2026-04-30 02:35 | -23.09868 | -47.60642 | 9745 ft | 304 kts | 60° |
| 2026-04-30 02:36 | -23.08876 | -47.58621 | 9392 ft | 301 kts | 60° |
| 2026-04-30 02:36 | -23.07893 | -47.56618 | 9079 ft | 299 kts | 60° |
| 2026-04-30 02:36 | -23.06914 | -47.54625 | 8754 ft | 297 kts | 60° |
| 2026-04-30 02:36 | -23.05946 | -47.52653 | 8436 ft | 295 kts | 60° |
| 2026-04-30 02:37 | -23.04980 | -47.50688 | 8129 ft | 294 kts | 60° |
| 2026-04-30 02:37 | -23.04023 | -47.48739 | 7837 ft | 292 kts | 60° |
| 2026-04-30 02:37 | -23.03066 | -47.46795 | 7658 ft | 291 kts | 60° |
| 2026-04-30 02:37 | -23.02111 | -47.44858 | 7454 ft | 290 kts | 59° |
| 2026-04-30 02:38 | -23.01161 | -47.42931 | 7249 ft | 289 kts | 59° |
| 2026-04-30 02:38 | -23.00536 | -47.41660 | 7120 ft | 288 kts | 59° |
| 2026-04-30 02:38 | -22.99605 | -47.39767 | 6921 ft | 280 kts | 59° |
| 2026-04-30 02:38 | -22.98704 | -47.37936 | 6731 ft | 271 kts | 59° |
| 2026-04-30 02:39 | -22.97790 | -47.36188 | 6564 ft | 260 kts | 51° |
| 2026-04-30 02:39 | -22.96590 | -47.34793 | 6342 ft | 250 kts | 35° |
| 2026-04-30 02:39 | -22.95237 | -47.33670 | 6048 ft | 240 kts | 34° |
| 2026-04-30 02:39 | -22.93921 | -47.32579 | 5785 ft | 237 kts | 35° |
| 2026-04-30 02:40 | -22.92668 | -47.31408 | 5363 ft | 242 kts | 48° |
| 2026-04-30 02:40 | -22.91825 | -47.29846 | 5063 ft | 237 kts | 70° |
| 2026-04-30 02:40 | -22.91541 | -47.28141 | 4894 ft | 225 kts | 89° |
| 2026-04-30 02:40 | -22.91766 | -47.26496 | 4710 ft | 216 kts | 108° |
| 2026-04-30 02:41 | -22.92400 | -47.25096 | 4471 ft | 198 kts | 125° |
| 2026-04-30 02:41 | -22.93200 | -47.23975 | 4229 ft | 180 kts | 127° |
| 2026-04-30 02:41 | -22.93930 | -47.22955 | 4021 ft | 164 kts | 127° |
| 2026-04-30 02:41 | -22.94612 | -47.22003 | 3824 ft | 156 kts | 127° |
| 2026-04-30 02:42 | -22.95269 | -47.21087 | 3631 ft | 152 kts | 127° |
| 2026-04-30 02:42 | -22.95914 | -47.20188 | 3444 ft | 150 kts | 127° |
| 2026-04-30 02:42 | -22.96549 | -47.19302 | 3249 ft | 148 kts | 127° |
| 2026-04-30 02:42 | -22.97177 | -47.18426 | 3065 ft | 146 kts | 127° |
| 2026-04-30 02:43 | -22.97792 | -47.17569 | 2874 ft | 142 kts | 129° |
| 2026-04-30 02:43 | -22.98391 | -47.16733 | 2693 ft | 139 kts | 130° |
| 2026-04-30 02:43 | -22.98974 | -47.15918 | 2501 ft | 137 kts | 130° |
| 2026-04-30 02:43 | -22.99551 | -47.15109 | 2305 ft | 135 kts | 130° |
| 2026-04-30 02:44 | -23.00124 | -47.14320 | 2158 ft | 124 kts | 132° |
| 2026-04-30 02:44 | -23.00689 | -47.13529 | 2267 ft | 151 kts | 130° |
| 2026-04-30 02:44 | -23.01416 | -47.12533 | 2833 ft | 178 kts | 128° |
| 2026-04-30 02:44 | -23.02207 | -47.11465 | 3712 ft | 193 kts | 129° |
| 2026-04-30 02:45 | -23.03329 | -47.10539 | 4323 ft | 217 kts | 161° |
| 2026-04-30 02:45 | -23.04866 | -47.10541 | 4730 ft | 232 kts | 205° |
| 2026-04-30 02:45 | -23.06061 | -47.11677 | 5343 ft | 233 kts | 245° |
| 2026-04-30 02:45 | -23.06304 | -47.13368 | 6050 ft | 230 kts | 285° |
| 2026-04-30 02:46 | -23.05769 | -47.15020 | 6410 ft | 232 kts | 294° |
| 2026-04-30 02:46 | -23.05136 | -47.16621 | 6494 ft | 230 kts | 295° |
| 2026-04-30 02:46 | -23.04489 | -47.18205 | 6505 ft | 230 kts | 295° |
| 2026-04-30 02:46 | -23.03843 | -47.19787 | 6510 ft | 229 kts | 295° |
| 2026-04-30 02:47 | -23.03201 | -47.21371 | 6509 ft | 229 kts | 295° |
| 2026-04-30 02:47 | -23.02565 | -47.22957 | 6509 ft | 229 kts | 295° |
| 2026-04-30 02:47 | -23.01933 | -47.24544 | 6510 ft | 229 kts | 295° |
| 2026-04-30 02:47 | -23.01314 | -47.26103 | 6502 ft | 219 kts | 295° |
| 2026-04-30 02:48 | -23.00722 | -47.27601 | 6498 ft | 215 kts | 295° |
| 2026-04-30 02:48 | -23.00134 | -47.29092 | 6495 ft | 215 kts | 295° |
| 2026-04-30 02:48 | -22.99546 | -47.30580 | 6492 ft | 214 kts | 295° |
| 2026-04-30 02:48 | -22.98957 | -47.32066 | 6487 ft | 214 kts | 296° |
| 2026-04-30 02:49 | -22.98073 | -47.33336 | 6484 ft | 212 kts | 324° |
| 2026-04-30 02:49 | -22.96723 | -47.33929 | 6483 ft | 213 kts | 354° |
| 2026-04-30 02:49 | -22.95275 | -47.33689 | 6482 ft | 218 kts | 22° |
| 2026-04-30 02:49 | -22.94029 | -47.32777 | 6480 ft | 208 kts | 35° |
| 2026-04-30 02:50 | -22.92944 | -47.31844 | 6402 ft | 198 kts | 35° |
| 2026-04-30 02:50 | -22.91863 | -47.30919 | 6070 ft | 202 kts | 35° |
| 2026-04-30 02:50 | -22.90809 | -47.29828 | 5652 ft | 211 kts | 55° |
| 2026-04-30 02:50 | -22.90365 | -47.28319 | 5202 ft | 223 kts | 94° |
| 2026-04-30 02:51 | -22.90959 | -47.26848 | 4891 ft | 209 kts | 133° |
| 2026-04-30 02:51 | -22.91924 | -47.25719 | 4623 ft | 207 kts | 130° |
| 2026-04-30 02:51 | -22.92850 | -47.24461 | 4332 ft | 210 kts | 128° |
| 2026-04-30 02:51 | -22.93698 | -47.23277 | 4093 ft | 188 kts | 127° |
| 2026-04-30 02:52 | -22.94457 | -47.22219 | 3873 ft | 169 kts | 127° |
| 2026-04-30 02:52 | -22.95149 | -47.21254 | 3663 ft | 157 kts | 127° |
| 2026-04-30 02:52 | -22.95806 | -47.20339 | 3472 ft | 151 kts | 127° |
| 2026-04-30 02:52 | -22.96445 | -47.19447 | 3283 ft | 149 kts | 127° |
| 2026-04-30 02:53 | -22.97075 | -47.18568 | 3096 ft | 146 kts | 127° |
| 2026-04-30 02:53 | -22.97692 | -47.17707 | 2909 ft | 142 kts | 129° |
| 2026-04-30 02:53 | -22.98295 | -47.16866 | 2718 ft | 140 kts | 130° |
| 2026-04-30 02:53 | -22.98885 | -47.16042 | 2520 ft | 136 kts | 130° |
| 2026-04-30 02:54 | -22.99462 | -47.15237 | 2324 ft | 135 kts | 130° |
| 2026-04-30 02:54 | -23.00038 | -47.14437 | 2160 ft | 134 kts | 130° |
| 2026-04-30 02:54 | -23.00549 | -47.13728 | 2151 ft | 98 kts | 128° |
| 2026-04-30 02:54 | -23.00859 | -47.13291 | 2157 ft | 48 kts | 128° |
| 2026-04-30 02:55 | -23.01008 | -47.13087 | 2155 ft | 30 kts | 129° |
| 2026-04-30 02:55 | -23.01129 | -47.12929 | 2152 ft | 26 kts | 131° |
| 2026-04-30 02:55 | -23.01275 | -47.12821 | 2155 ft | 25 kts | 156° |
| 2026-04-30 02:55 | -23.01384 | -47.12835 | 2151 ft | 13 kts | 254° |
| 2026-04-30 02:56 | -23.01350 | -47.12916 | 2149 ft | 11 kts | 308° |
| 2026-04-30 02:56 | -23.01305 | -47.12978 | 2152 ft | 10 kts | 308° |
| 2026-04-30 02:56 | -23.01268 | -47.13030 | 2153 ft | 8 kts | 308° |
| 2026-04-30 02:56 | -23.01232 | -47.13080 | 2152 ft | 13 kts | 308° |
| 2026-04-30 02:57 | -23.01178 | -47.13154 | 2153 ft | 12 kts | 308° |
| 2026-04-30 02:57 | -23.01131 | -47.13220 | 2154 ft | 10 kts | 307° |
| 2026-04-30 02:57 | -23.01091 | -47.13277 | 2152 ft | 9 kts | 307° |
| 2026-04-30 02:57 | -23.01057 | -47.13326 | 2149 ft | 7 kts | 307° |
| 2026-04-30 02:58 | -23.01030 | -47.13365 | 2154 ft | 6 kts | 308° |
| 2026-04-30 02:58 | -23.01002 | -47.13403 | 2153 ft | 10 kts | 308° |
| 2026-04-30 02:58 | -23.00963 | -47.13456 | 2155 ft | 8 kts | 308° |
| 2026-04-30 02:58 | -23.00896 | -47.13550 | 2155 ft | 25 kts | 307° |
| 2026-04-30 02:59 | -23.00793 | -47.13692 | 2153 ft | 23 kts | 308° |
| 2026-04-30 02:59 | -23.00699 | -47.13822 | 2155 ft | 21 kts | 308° |
| 2026-04-30 02:59 | -23.00614 | -47.13940 | 2153 ft | 19 kts | 308° |
| 2026-04-30 02:59 | -23.00539 | -47.14046 | 2153 ft | 17 kts | 308° |
| 2026-04-30 03:00 | -23.00470 | -47.14142 | 2152 ft | 15 kts | 308° |
| 2026-04-30 03:00 | -23.00398 | -47.14243 | 2154 ft | 18 kts | 307° |
| 2026-04-30 03:00 | -23.00325 | -47.14346 | 2156 ft | 16 kts | 307° |
| 2026-04-30 03:00 | -23.00258 | -47.14440 | 2153 ft | 15 kts | 307° |
| 2026-04-30 03:01 | -23.00198 | -47.14525 | 2152 ft | 13 kts | 306° |
| 2026-04-30 03:01 | -23.00215 | -47.14583 | 2154 ft | 7 kts | 220° |
| 2026-04-30 03:01 | -23.00250 | -47.14615 | 2153 ft | 6 kts | 221° |
| 2026-04-30 03:01 | -23.00277 | -47.14640 | 2155 ft | 4 kts | 219° |
| 2026-04-30 03:02 | -23.00302 | -47.14662 | 2154 ft | 8 kts | 218° |
| 2026-04-30 03:02 | -23.00342 | -47.14696 | 2155 ft | 6 kts | 218° |
| 2026-04-30 03:02 | -23.00373 | -47.14722 | 2156 ft | 5 kts | 218° |
| 2026-04-30 03:02 | -23.00392 | -47.14746 | 2153 ft | 3 kts | 243° |
| 2026-04-30 03:03 | -23.00396 | -47.14766 | 2154 ft | 2 kts | 258° |
| 2026-04-30 03:03 | -23.00411 | -47.14807 | 2152 ft | 3 kts | 231° |
| 2026-04-30 03:03 | -23.00421 | -47.14818 | 2155 ft | 0 kts | 222° |
| 2026-04-30 03:04 | -23.00424 | -47.14819 | 2157 ft | 1 kts | 217° |
| 2026-04-30 03:04 | -23.00425 | -47.14821 | 2156 ft | 0 kts | 220° |
| 2026-04-30 03:04 | -23.00426 | -47.14822 | 2157 ft | 0 kts | 223° |